createdAt,value
2019-05-31T00:00:25.885Z,0
2019-05-31T00:01:25.913Z,0
2019-05-31T00:04:25.980Z,0
2019-05-31T00:05:40.664Z,0
2019-05-31T00:06:26.026Z,0
2019-05-31T00:07:27.413Z,0
2019-05-31T00:08:26.071Z,0
2019-05-31T00:09:40.768Z,0
2019-05-31T00:10:26.113Z,0
2019-05-31T00:11:26.136Z,0
2019-05-31T00:12:40.828Z,0
2019-05-31T00:13:26.182Z,0
2019-05-31T00:14:28.246Z,0
2019-05-31T00:15:26.234Z,0
2019-05-31T00:16:26.255Z,0
2019-05-31T00:17:26.273Z,0
2019-05-31T00:18:26.299Z,0
2019-05-31T00:19:26.321Z,0
2019-05-31T00:20:41.016Z,0
2019-05-31T00:21:26.365Z,0
2019-05-31T00:22:26.391Z,0
2019-05-31T00:23:26.481Z,0
2019-05-31T00:24:26.438Z,0
2019-05-31T00:25:26.460Z,0
2019-05-31T00:26:26.488Z,0
2019-05-31T00:27:26.519Z,0
2019-05-31T00:28:41.189Z,0
2019-05-31T00:29:41.210Z,0
2019-05-31T00:30:26.578Z,0
2019-05-31T00:31:26.610Z,0
2019-05-31T00:32:26.373Z,0
2019-05-31T00:34:26.665Z,0
2019-05-31T00:35:26.685Z,0
2019-05-31T00:36:26.716Z,0
2019-05-31T00:37:26.732Z,0
2019-05-31T00:38:26.750Z,0
2019-05-31T00:39:26.787Z,0
2019-05-31T00:40:42.906Z,0
2019-05-31T00:42:26.843Z,0
2019-05-31T00:43:26.877Z,0
2019-05-31T00:44:39.744Z,0
2019-05-31T00:45:26.917Z,0
2019-05-31T00:46:26.937Z,0
2019-05-31T00:47:41.621Z,0
2019-05-31T00:48:26.982Z,0
2019-05-31T00:49:27.005Z,0
2019-05-31T00:50:26.786Z,0
2019-05-31T00:51:27.061Z,0
2019-05-31T00:52:41.485Z,0
2019-05-31T00:53:27.091Z,0
2019-05-31T00:54:27.114Z,0
2019-05-31T00:55:27.138Z,0
2019-05-31T00:56:27.167Z,0
2019-05-31T00:57:27.186Z,0
2019-05-31T00:58:27.212Z,0
2019-05-31T00:59:27.225Z,0
2019-05-31T01:00:27.252Z,0
2019-05-31T01:01:27.273Z,0
2019-05-31T01:02:27.047Z,0
2019-05-31T01:03:27.321Z,0
2019-05-31T01:04:42.058Z,0
2019-05-31T01:05:42.091Z,0
2019-05-31T01:06:27.414Z,0
2019-05-31T01:07:27.413Z,0
2019-05-31T01:08:42.094Z,0
2019-05-31T01:09:42.124Z,0
2019-05-31T01:10:42.145Z,0
2019-05-31T01:11:27.497Z,0
2019-05-31T01:12:27.521Z,0
2019-05-31T01:13:41.959Z,0
2019-05-31T01:14:27.566Z,0
2019-05-31T01:15:27.586Z,0
2019-05-31T01:16:27.614Z,0
2019-05-31T01:17:42.295Z,0
2019-05-31T01:18:42.316Z,0
2019-05-31T01:19:42.340Z,0
2019-05-31T01:20:42.365Z,0
2019-05-31T01:21:27.729Z,0
2019-05-31T01:22:27.751Z,0
2019-05-31T01:24:42.450Z,0
2019-05-31T01:25:27.809Z,0
2019-05-31T01:26:27.835Z,0
2019-05-31T01:27:27.643Z,0
2019-05-31T01:28:27.886Z,0
2019-05-31T01:29:27.901Z,0
2019-05-31T01:30:42.589Z,0
2019-05-31T01:31:42.610Z,0
2019-05-31T01:32:28.026Z,0
2019-05-31T01:33:42.672Z,0
2019-05-31T01:34:28.010Z,0
2019-05-31T01:35:28.042Z,0
2019-05-31T01:36:28.068Z,0
2019-05-31T01:37:28.089Z,0
2019-05-31T01:38:28.111Z,0
2019-05-31T01:40:42.814Z,0
2019-05-31T01:41:28.176Z,0
2019-05-31T01:42:28.192Z,0
2019-05-31T01:43:28.212Z,0
2019-05-31T01:44:28.247Z,0
2019-05-31T01:45:28.256Z,0
2019-05-31T01:46:28.306Z,0
2019-05-31T01:47:28.311Z,0
2019-05-31T01:48:28.360Z,0
2019-05-31T01:50:28.369Z,0
2019-05-31T01:51:28.395Z,0
2019-05-31T01:52:28.415Z,0
2019-05-31T01:53:28.438Z,0
2019-05-31T01:54:28.463Z,0
2019-05-31T01:55:43.143Z,0
2019-05-31T01:56:28.504Z,0
2019-05-31T01:57:28.275Z,0
2019-05-31T01:59:28.565Z,0
2019-05-31T02:01:28.632Z,0
2019-05-31T02:02:43.373Z,0
2019-05-31T02:03:28.682Z,0
2019-05-31T02:04:28.690Z,0
2019-05-31T02:05:28.704Z,4
2019-05-31T02:06:28.728Z,4
2019-05-31T02:07:28.744Z,4
2019-05-31T02:09:28.798Z,0
2019-05-31T02:10:28.815Z,4
2019-05-31T02:11:28.835Z,4
2019-05-31T02:12:28.869Z,4
2019-05-31T02:13:28.886Z,4
2019-05-31T02:14:28.933Z,8
2019-05-31T02:15:38.740Z,4
2019-05-31T02:16:28.942Z,8
2019-05-31T02:17:43.666Z,8
2019-05-31T02:19:29.011Z,12
2019-05-31T02:20:28.788Z,12
2019-05-31T02:21:29.057Z,12
2019-05-31T02:22:29.076Z,16
2019-05-31T02:23:29.100Z,16
2019-05-31T02:24:29.118Z,20
2019-05-31T02:25:43.837Z,20
2019-05-31T02:26:29.171Z,20
2019-05-31T02:27:43.849Z,24
2019-05-31T02:28:29.208Z,28
2019-05-31T02:29:29.227Z,28
2019-05-31T02:30:29.278Z,36
2019-05-31T02:31:29.313Z,40
2019-05-31T02:32:43.980Z,44
2019-05-31T02:33:29.348Z,48
2019-05-31T02:35:29.396Z,56
2019-05-31T02:36:29.405Z,64
2019-05-31T02:37:44.080Z,72
2019-05-31T02:38:29.440Z,80
2019-05-31T02:39:31.752Z,84
2019-05-31T02:40:29.484Z,92
2019-05-31T02:41:29.257Z,100
2019-05-31T02:42:29.518Z,108
2019-05-31T02:43:44.204Z,124
2019-05-31T02:44:29.578Z,132
2019-05-31T02:45:48.445Z,148
2019-05-31T02:46:29.615Z,156
2019-05-31T02:47:44.309Z,168
2019-05-31T02:48:29.655Z,180
2019-05-31T02:49:29.676Z,188
2019-05-31T02:50:29.689Z,204
2019-05-31T02:51:29.748Z,212
2019-05-31T02:52:29.735Z,228
2019-05-31T02:53:29.764Z,240
2019-05-31T02:54:29.652Z,252
2019-05-31T02:55:29.822Z,268
2019-05-31T02:56:29.858Z,288
2019-05-31T02:57:29.865Z,304
2019-05-31T02:58:29.896Z,324
2019-05-31T02:59:44.556Z,352
2019-05-31T03:01:29.956Z,400
2019-05-31T03:02:29.974Z,428
2019-05-31T03:03:29.991Z,460
2019-05-31T03:04:30.004Z,496
2019-05-31T03:05:30.029Z,536
2019-05-31T03:06:30.051Z,576
2019-05-31T03:07:30.072Z,620
2019-05-31T03:08:30.095Z,664
2019-05-31T03:09:30.187Z,708
2019-05-31T03:10:30.133Z,752
2019-05-31T03:11:30.185Z,796
2019-05-31T03:12:30.180Z,844
2019-05-31T03:13:30.209Z,892
2019-05-31T03:14:30.292Z,940
2019-05-31T03:15:44.903Z,1004
2019-05-31T03:16:30.269Z,1048
2019-05-31T03:17:30.334Z,1128
2019-05-31T03:18:30.334Z,1228
2019-05-31T03:19:30.331Z,1332
2019-05-31T03:20:30.376Z,1404
2019-05-31T03:21:30.127Z,1460
2019-05-31T03:22:30.404Z,1520
2019-05-31T03:23:45.460Z,1596
2019-05-31T03:24:30.493Z,1660
2019-05-31T03:25:30.886Z,1764
2019-05-31T03:27:30.512Z,1908
2019-05-31T03:28:31.636Z,1896
2019-05-31T03:29:30.693Z,1896
2019-05-31T03:30:45.276Z,1952
2019-05-31T03:32:03.548Z,2084
2019-05-31T03:32:45.002Z,2244
2019-05-31T03:34:41.554Z,2668
2019-05-31T03:35:43.750Z,2864
2019-05-31T03:36:41.985Z,3004
2019-05-31T03:37:32.031Z,3116
2019-05-31T03:39:31.634Z,3596
2019-05-31T03:40:32.322Z,4108
2019-05-31T03:41:31.627Z,4104
2019-05-31T03:42:31.775Z,4484
2019-05-31T03:43:31.585Z,4800
2019-05-31T03:44:31.950Z,5088
2019-05-31T03:45:32.290Z,4496
2019-05-31T03:46:47.899Z,4652
2019-05-31T03:47:32.002Z,4836
2019-05-31T03:48:32.393Z,4900
2019-05-31T03:49:32.372Z,4868
2019-05-31T03:50:33.024Z,4984
2019-05-31T03:51:32.313Z,5084
2019-05-31T03:52:32.503Z,5168
2019-05-31T03:53:32.364Z,5284
2019-05-31T03:54:32.003Z,5456
2019-05-31T03:55:31.890Z,5608
2019-05-31T03:56:32.448Z,6220
2019-05-31T03:57:32.495Z,6368
2019-05-31T03:58:32.802Z,6028
2019-05-31T03:59:32.434Z,6064
2019-05-31T04:00:32.575Z,6220
2019-05-31T04:01:32.687Z,6692
2019-05-31T04:02:45.938Z,7476
2019-05-31T04:03:32.701Z,7920
2019-05-31T04:04:33.427Z,8348
2019-05-31T04:05:31.867Z,8156
2019-05-31T04:06:33.515Z,7396
2019-05-31T04:07:31.799Z,6828
2019-05-31T04:08:34.261Z,5648
2019-05-31T04:09:37.741Z,4700
2019-05-31T04:10:33.282Z,4348
2019-05-31T04:11:32.447Z,4216
2019-05-31T04:12:48.371Z,4288
2019-05-31T04:13:47.615Z,4620
2019-05-31T04:14:34.287Z,5224
2019-05-31T04:15:46.953Z,6812
2019-05-31T04:16:52.860Z,8452
2019-05-31T04:17:32.659Z,9288
2019-05-31T04:18:46.313Z,10440
2019-05-31T04:19:33.231Z,10172
2019-05-31T04:20:33.719Z,9104
2019-05-31T04:21:33.062Z,7464
2019-05-31T04:22:33.000Z,5816
2019-05-31T04:23:34.150Z,5160
2019-05-31T04:24:33.562Z,4824
2019-05-31T04:25:32.868Z,4664
2019-05-31T04:26:33.091Z,4636
2019-05-31T04:27:33.944Z,4556
2019-05-31T04:28:34.459Z,4564
2019-05-31T04:29:33.751Z,4616
2019-05-31T04:30:48.032Z,4604
2019-05-31T04:31:33.481Z,4708
2019-05-31T04:33:34.001Z,5732
2019-05-31T04:34:46.680Z,6584
2019-05-31T04:35:33.913Z,6888
2019-05-31T04:36:34.156Z,6696
2019-05-31T04:37:33.211Z,6500
2019-05-31T04:38:34.501Z,6620
2019-05-31T04:39:33.619Z,6876
2019-05-31T04:40:34.104Z,6900
2019-05-31T04:41:34.130Z,7564
2019-05-31T04:42:34.299Z,8000
2019-05-31T04:43:33.831Z,8208
2019-05-31T04:44:33.917Z,8340
2019-05-31T04:45:33.841Z,8136
2019-05-31T04:46:33.887Z,7780
2019-05-31T04:47:34.228Z,7420
2019-05-31T04:48:34.570Z,6992
2019-05-31T04:49:48.524Z,6408
2019-05-31T04:50:47.016Z,6044
2019-05-31T04:51:33.864Z,5828
2019-05-31T04:52:34.073Z,5680
2019-05-31T04:54:48.759Z,5700
2019-05-31T04:55:33.692Z,5728
2019-05-31T04:56:34.235Z,5732
2019-05-31T04:57:33.854Z,5644
2019-05-31T04:58:37.059Z,5660
2019-05-31T04:59:34.573Z,5604
2019-05-31T05:00:35.169Z,5708
2019-05-31T05:01:33.894Z,5980
2019-05-31T05:02:35.130Z,6300
2019-05-31T05:04:34.222Z,7492
2019-05-31T05:05:47.363Z,8048
2019-05-31T05:06:34.192Z,8472
2019-05-31T05:07:34.231Z,8804
2019-05-31T05:08:34.248Z,9276
2019-05-31T05:09:39.462Z,9728
2019-05-31T05:10:34.241Z,9516
2019-05-31T05:11:34.161Z,9380
2019-05-31T05:12:34.014Z,9364
2019-05-31T05:13:34.163Z,9632
2019-05-31T05:14:48.874Z,9752
2019-05-31T05:15:34.053Z,10416
2019-05-31T05:16:34.320Z,10980
2019-05-31T05:17:46.660Z,12000
2019-05-31T05:18:37.106Z,12952
2019-05-31T05:19:34.245Z,14488
2019-05-31T05:20:33.991Z,19808
2019-05-31T05:21:34.244Z,18784
2019-05-31T05:22:34.162Z,19488
2019-05-31T05:23:34.497Z,20544
2019-05-31T05:24:34.308Z,26752
2019-05-31T05:25:34.354Z,24224
2019-05-31T05:26:34.475Z,22240
2019-05-31T05:27:33.249Z,21920
2019-05-31T05:28:47.898Z,20768
2019-05-31T05:29:33.255Z,21536
2019-05-31T05:30:33.283Z,19040
2019-05-31T05:31:47.963Z,16896
2019-05-31T05:32:33.334Z,16080
2019-05-31T05:33:33.593Z,15452
2019-05-31T05:34:33.471Z,16280
2019-05-31T05:35:48.269Z,18528
2019-05-31T05:36:33.657Z,20864
2019-05-31T05:37:48.109Z,44064
2019-05-31T05:38:33.831Z,23936
2019-05-31T05:39:34.046Z,22272
2019-05-31T05:40:34.032Z,22624
2019-05-31T05:41:34.743Z,25824
2019-05-31T05:42:52.746Z,44928
2019-05-31T05:43:49.048Z,37536
2019-05-31T05:44:34.540Z,33536
2019-05-31T05:45:35.200Z,35040
2019-05-31T05:46:34.646Z,26816
2019-05-31T05:47:54.312Z,26944
2019-05-31T05:48:34.862Z,34400
2019-05-31T05:49:35.048Z,29856
2019-05-31T05:50:34.942Z,26176
2019-05-31T05:51:35.213Z,24576
2019-05-31T05:52:49.771Z,24864
2019-05-31T05:53:48.506Z,26336
2019-05-31T05:54:35.418Z,23360
2019-05-31T05:56:39.163Z,21952
2019-05-31T05:59:34.522Z,26592
2019-05-31T06:00:36.419Z,26560
2019-05-31T06:01:34.573Z,19360
2019-05-31T06:02:34.664Z,15912
2019-05-31T06:03:34.965Z,15280
2019-05-31T06:04:37.019Z,15112
2019-05-31T06:05:35.176Z,14968
2019-05-31T06:06:35.359Z,13952
2019-05-31T06:07:35.364Z,12768
2019-05-31T06:09:48.916Z,10776
2019-05-31T06:10:35.432Z,11084
2019-05-31T06:11:36.674Z,11400
2019-05-31T06:12:35.527Z,11148
2019-05-31T06:14:36.386Z,11348
2019-05-31T06:15:36.199Z,12184
2019-05-31T06:17:07.828Z,14356
2019-05-31T06:17:38.326Z,15116
2019-05-31T06:18:36.402Z,16628
2019-05-31T06:20:36.582Z,23328
2019-05-31T06:21:36.538Z,23296
2019-05-31T06:22:40.216Z,21696
2019-05-31T06:23:50.327Z,23456
2019-05-31T06:24:36.899Z,26432
2019-05-31T06:25:49.073Z,23040
2019-05-31T06:26:36.779Z,20640
2019-05-31T06:27:36.891Z,18848
2019-05-31T06:28:37.033Z,18144
2019-05-31T06:29:37.012Z,15812
2019-05-31T06:30:37.061Z,14320
2019-05-31T06:31:37.025Z,13368
2019-05-31T06:33:37.752Z,12392
2019-05-31T06:34:37.049Z,11908
2019-05-31T06:35:36.979Z,11360
2019-05-31T06:36:37.063Z,11208
2019-05-31T06:37:37.371Z,11348
2019-05-31T06:39:37.181Z,11340
2019-05-31T06:40:49.703Z,10840
2019-05-31T06:41:36.371Z,10904
2019-05-31T06:42:39.704Z,11480
2019-05-31T06:43:41.845Z,11852
2019-05-31T06:44:36.344Z,11632
2019-05-31T06:45:36.946Z,11724
2019-05-31T06:46:36.711Z,14432
2019-05-31T06:47:37.016Z,20224
2019-05-31T06:48:36.472Z,25696
2019-05-31T06:49:36.848Z,27488
2019-05-31T06:50:53.905Z,18048
2019-05-31T06:51:37.171Z,15860
2019-05-31T06:52:37.112Z,15548
2019-05-31T06:53:37.743Z,14140
2019-05-31T06:54:41.002Z,14756
2019-05-31T06:55:36.572Z,15668
2019-05-31T06:57:38.685Z,16496
2019-05-31T06:58:36.738Z,19232
2019-05-31T06:59:36.926Z,23744
2019-05-31T07:00:39.523Z,29472
2019-05-31T07:01:43.149Z,29216
2019-05-31T07:02:36.716Z,26720
2019-05-31T07:03:36.945Z,25984
2019-05-31T07:04:52.791Z,28800
2019-05-31T07:05:45.136Z,34816
2019-05-31T07:06:36.854Z,35360
2019-05-31T07:08:37.456Z,53824
2019-05-31T07:09:40.607Z,35200
2019-05-31T07:10:52.752Z,40480
2019-05-31T07:11:37.975Z,55648
2019-05-31T07:12:50.528Z,59808
2019-05-31T07:13:38.406Z,78080
2019-05-31T07:14:40.772Z,83776
2019-05-31T07:15:41.068Z,77248
2019-05-31T07:16:41.478Z,82688
2019-05-31T07:17:58.246Z,82688
2019-05-31T07:18:50.924Z,83008
2019-05-31T07:19:51.880Z,80448
2019-05-31T07:21:44.586Z,79808
2019-05-31T07:22:39.215Z,81984
2019-05-31T07:23:47.793Z,80480
2019-05-31T07:24:37.340Z,78656
2019-05-31T07:25:37.585Z,79392
2019-05-31T07:27:02.894Z,45952
2019-05-31T07:27:37.461Z,53440
2019-05-31T07:28:51.016Z,78400
2019-05-31T07:29:48.531Z,77600
2019-05-31T07:30:37.865Z,77440
2019-05-31T07:31:40.113Z,76384
2019-05-31T07:32:38.127Z,76128
2019-05-31T07:33:38.510Z,77632
2019-05-31T07:34:38.254Z,77760
2019-05-31T07:35:38.477Z,68128
2019-05-31T07:36:51.732Z,60736
2019-05-31T07:37:56.699Z,60512
2019-05-31T07:38:40.505Z,57088
2019-05-31T07:39:41.724Z,41184
2019-05-31T07:40:38.795Z,67776
2019-05-31T07:41:52.649Z,73760
2019-05-31T07:42:39.054Z,71968
2019-05-31T07:43:39.697Z,67904
2019-05-31T07:44:51.512Z,73792
2019-05-31T07:45:52.769Z,73440
2019-05-31T07:47:09.167Z,73184
2019-05-31T07:47:37.990Z,74080
2019-05-31T07:49:07.815Z,73952
2019-05-31T07:49:38.127Z,75392
2019-05-31T07:50:38.370Z,68928
2019-05-31T07:51:38.407Z,72320
2019-05-31T07:52:38.562Z,60768
2019-05-31T07:53:38.647Z,64992
2019-05-31T07:54:52.152Z,55264
2019-05-31T07:55:38.837Z,32096
2019-05-31T07:56:38.871Z,40192
2019-05-31T07:57:37.304Z,61760
2019-05-31T07:58:38.363Z,46464
2019-05-31T07:59:38.751Z,48512
2019-05-31T08:00:51.561Z,70080
2019-05-31T08:01:37.996Z,52832
2019-05-31T08:02:52.446Z,34656
2019-05-31T08:03:38.206Z,49856
2019-05-31T08:04:38.050Z,51584
2019-05-31T08:05:38.540Z,66112
2019-05-31T08:07:52.953Z,55488
2019-05-31T08:08:44.161Z,55968
2019-05-31T08:09:42.179Z,64704
2019-05-31T08:10:38.289Z,62272
2019-05-31T08:11:38.361Z,65248
2019-05-31T08:12:38.681Z,69184
2019-05-31T08:13:40.516Z,55264
2019-05-31T08:14:38.639Z,68224
2019-05-31T08:15:52.318Z,56000
2019-05-31T08:16:59.951Z,38656
2019-05-31T08:17:54.808Z,30528
2019-05-31T08:18:43.621Z,33472
2019-05-31T08:19:53.303Z,42816
2019-05-31T08:20:38.934Z,38464
2019-05-31T08:21:42.557Z,51264
2019-05-31T08:22:38.621Z,37024
2019-05-31T08:23:41.952Z,42304
2019-05-31T08:24:39.327Z,62656
2019-05-31T08:25:54.781Z,63392
2019-05-31T08:26:40.938Z,65024
2019-05-31T08:27:39.364Z,67008
2019-05-31T08:28:39.621Z,65536
2019-05-31T08:29:54.179Z,60672
2019-05-31T08:30:39.782Z,53344
2019-05-31T08:31:39.957Z,55904
2019-05-31T08:32:39.597Z,36256
2019-05-31T08:33:41.023Z,44736
2019-05-31T08:34:38.547Z,44480
2019-05-31T08:35:38.578Z,37568
2019-05-31T08:36:41.742Z,35328
2019-05-31T08:37:39.518Z,35136
2019-05-31T08:38:39.816Z,32928
2019-05-31T08:39:40.006Z,29856
2019-05-31T08:40:43.999Z,33920
2019-05-31T08:41:39.694Z,34464
2019-05-31T08:42:39.746Z,28032
2019-05-31T08:43:40.589Z,32672
2019-05-31T08:44:39.939Z,27520
2019-05-31T08:45:40.163Z,26560
2019-05-31T08:46:42.227Z,22336
2019-05-31T08:47:53.410Z,20160
2019-05-31T08:48:40.346Z,18336
2019-05-31T08:49:53.713Z,16132
2019-05-31T08:50:40.231Z,14968
2019-05-31T08:51:42.474Z,13448
2019-05-31T08:52:50.909Z,12336
2019-05-31T08:53:55.103Z,12996
2019-05-31T08:54:40.472Z,12960
2019-05-31T08:55:40.964Z,13288
2019-05-31T08:56:40.515Z,12428
2019-05-31T08:57:40.548Z,11508
2019-05-31T08:58:40.774Z,11636
2019-05-31T08:59:54.099Z,12628
2019-05-31T09:00:41.074Z,12708
2019-05-31T09:02:11.678Z,12000
2019-05-31T09:02:41.023Z,11560
2019-05-31T09:03:54.203Z,10040
2019-05-31T09:04:40.317Z,9296
2019-05-31T09:05:41.254Z,10228
2019-05-31T09:06:41.031Z,11300
2019-05-31T09:07:42.057Z,12336
2019-05-31T09:08:41.247Z,10836
2019-05-31T09:09:41.020Z,9300
2019-05-31T09:10:58.896Z,8396
2019-05-31T09:11:45.317Z,8824
2019-05-31T09:12:41.436Z,9280
2019-05-31T09:13:45.044Z,9292
2019-05-31T09:14:43.039Z,9860
2019-05-31T09:15:43.119Z,9720
2019-05-31T09:16:45.139Z,8880
2019-05-31T09:17:45.451Z,7656
2019-05-31T09:18:45.412Z,7564
2019-05-31T09:20:04.236Z,9152
2019-05-31T09:20:45.419Z,10368
2019-05-31T09:21:42.929Z,11956
2019-05-31T09:22:43.079Z,13448
2019-05-31T09:23:41.703Z,13752
2019-05-31T09:24:43.008Z,13840
2019-05-31T09:25:41.744Z,13924
2019-05-31T09:26:45.645Z,13520
2019-05-31T09:28:01.084Z,12320
2019-05-31T09:28:42.287Z,11460
2019-05-31T09:30:27.649Z,9444
2019-05-31T09:30:42.511Z,9232
2019-05-31T09:31:44.620Z,8216
2019-05-31T09:32:45.592Z,7424
2019-05-31T09:33:44.950Z,7248
2019-05-31T09:34:43.094Z,7576
2019-05-31T09:35:55.140Z,7784
2019-05-31T09:36:41.691Z,7996
2019-05-31T09:37:43.520Z,7976
2019-05-31T09:38:41.804Z,8496
2019-05-31T09:39:50.133Z,9288
2019-05-31T09:40:41.950Z,9332
2019-05-31T09:42:42.072Z,8856
2019-05-31T09:43:42.041Z,8744
2019-05-31T09:44:43.834Z,9020
2019-05-31T09:45:44.773Z,9504
2019-05-31T09:46:42.402Z,10512
2019-05-31T09:47:57.326Z,11472
2019-05-31T09:48:42.298Z,11724
2019-05-31T09:49:44.445Z,11844
2019-05-31T09:50:55.302Z,11640
2019-05-31T09:51:44.349Z,11180
2019-05-31T09:52:45.786Z,10328
2019-05-31T09:53:42.159Z,9400
2019-05-31T09:54:56.803Z,8228
2019-05-31T09:55:42.527Z,7708
2019-05-31T09:56:45.019Z,7360
2019-05-31T09:57:50.572Z,7360
2019-05-31T09:58:55.772Z,7676
2019-05-31T10:00:45.509Z,8656
2019-05-31T10:01:45.266Z,9420
2019-05-31T10:02:43.021Z,10208
2019-05-31T10:03:43.129Z,10652
2019-05-31T10:04:42.467Z,11180
2019-05-31T10:05:42.910Z,12436
2019-05-31T10:06:56.268Z,14444
2019-05-31T10:07:43.201Z,15476
2019-05-31T10:08:50.232Z,17184
2019-05-31T10:09:43.008Z,18624
2019-05-31T10:10:47.577Z,18624
2019-05-31T10:11:45.999Z,17792
2019-05-31T10:12:45.898Z,16612
2019-05-31T10:13:43.194Z,15228
2019-05-31T10:14:46.034Z,14160
2019-05-31T10:15:46.233Z,13612
2019-05-31T10:16:43.593Z,13228
2019-05-31T10:17:47.132Z,12828
2019-05-31T10:18:45.319Z,12756
2019-05-31T10:19:45.795Z,12940
2019-05-31T10:20:45.592Z,13012
2019-05-31T10:21:43.591Z,13732
2019-05-31T10:22:56.439Z,14428
2019-05-31T10:24:01.544Z,14812
2019-05-31T10:24:43.305Z,14996
2019-05-31T10:25:47.940Z,15012
2019-05-31T10:26:56.733Z,14656
2019-05-31T10:27:43.859Z,14344
2019-05-31T10:28:43.837Z,13924
2019-05-31T10:29:45.909Z,13608
2019-05-31T10:30:44.133Z,13440
2019-05-31T10:31:44.046Z,13132
2019-05-31T10:32:59.147Z,13532
2019-05-31T10:33:44.461Z,14100
2019-05-31T10:34:44.747Z,15080
2019-05-31T10:35:46.094Z,15612
2019-05-31T10:36:44.482Z,15572
2019-05-31T10:37:46.614Z,14244
2019-05-31T10:38:56.887Z,13784
2019-05-31T10:39:46.981Z,14012
2019-05-31T10:40:44.308Z,14212
2019-05-31T10:41:44.232Z,14132
2019-05-31T10:42:42.860Z,14632
2019-05-31T10:44:44.899Z,15568
2019-05-31T10:45:46.563Z,13352
2019-05-31T10:46:47.359Z,12728
2019-05-31T10:47:45.081Z,12760
2019-05-31T10:48:44.947Z,14912
2019-05-31T10:49:44.953Z,17792
2019-05-31T10:51:03.639Z,17984
2019-05-31T10:51:58.823Z,15172
2019-05-31T10:52:49.087Z,17856
2019-05-31T10:53:45.001Z,17280
2019-05-31T10:55:12.151Z,15888
2019-05-31T10:55:44.535Z,15580
2019-05-31T10:58:44.947Z,15500
2019-05-31T11:00:00.048Z,15244
2019-05-31T11:00:45.436Z,14908
2019-05-31T11:01:47.546Z,13512
2019-05-31T11:02:44.684Z,13792
2019-05-31T11:03:46.127Z,16252
2019-05-31T11:04:45.270Z,16352
2019-05-31T11:06:01.084Z,14284
2019-05-31T11:06:58.438Z,14628
2019-05-31T11:07:45.383Z,14748
2019-05-31T11:08:45.680Z,12156
2019-05-31T11:09:58.599Z,12256
2019-05-31T11:10:57.788Z,15668
2019-05-31T11:11:49.287Z,11724
2019-05-31T11:12:45.706Z,11760
2019-05-31T11:13:45.657Z,13216
2019-05-31T11:14:58.872Z,12420
2019-05-31T11:15:54.994Z,13320
2019-05-31T11:16:48.223Z,15316
2019-05-31T11:17:56.781Z,14840
2019-05-31T11:18:48.400Z,14576
2019-05-31T11:20:24.070Z,13572
2019-05-31T11:20:45.649Z,13640
2019-05-31T11:21:45.711Z,12296
2019-05-31T11:22:48.550Z,12736
2019-05-31T11:23:46.273Z,12612
2019-05-31T11:24:47.359Z,12488
2019-05-31T11:25:58.216Z,11016
2019-05-31T11:26:50.945Z,10988
2019-05-31T11:27:46.852Z,12820
2019-05-31T11:28:46.165Z,12468
2019-05-31T11:29:58.771Z,12252
2019-05-31T11:30:45.969Z,11288
2019-05-31T11:31:45.276Z,10912
2019-05-31T11:32:53.157Z,12980
2019-05-31T11:34:24.473Z,12568
2019-05-31T11:34:46.489Z,12564
2019-05-31T11:35:49.005Z,12556
2019-05-31T11:37:51.015Z,13444
2019-05-31T11:38:46.729Z,11904
2019-05-31T11:39:47.389Z,11364
2019-05-31T11:40:46.777Z,10320
2019-05-31T11:41:46.986Z,10152
2019-05-31T11:43:14.055Z,11020
2019-05-31T11:43:47.588Z,11048
2019-05-31T11:44:50.725Z,10464
2019-05-31T11:45:50.615Z,10352
2019-05-31T11:46:50.797Z,11520
2019-05-31T11:47:53.442Z,11324
2019-05-31T11:48:47.876Z,11652
2019-05-31T11:49:48.216Z,11856
2019-05-31T11:51:47.951Z,10980
2019-05-31T11:52:48.500Z,11108
2019-05-31T11:53:57.871Z,11320
2019-05-31T11:55:32.647Z,10676
2019-05-31T11:56:56.978Z,10512
2019-05-31T11:58:11.921Z,10652
2019-05-31T12:00:57.338Z,9740
2019-05-31T12:01:57.371Z,10156
2019-05-31T12:03:57.422Z,8136
2019-05-31T12:04:57.454Z,10712
2019-05-31T12:05:57.484Z,10336
2019-05-31T12:06:57.508Z,10608
2019-05-31T12:08:12.201Z,8968
2019-05-31T12:08:57.567Z,10656
2019-05-31T12:09:57.657Z,10268
2019-05-31T12:11:12.291Z,10040
2019-05-31T12:11:57.648Z,9592
2019-05-31T12:13:04.223Z,9392
2019-05-31T12:13:57.713Z,9244
2019-05-31T12:14:57.733Z,8764
2019-05-31T12:15:57.778Z,9372
2019-05-31T12:17:02.435Z,9504
2019-05-31T12:18:12.482Z,9504
2019-05-31T12:18:58.746Z,9552
2019-05-31T12:19:57.902Z,9848
2019-05-31T12:21:04.980Z,8876
2019-05-31T12:22:07.454Z,9928
2019-05-31T12:22:57.955Z,10240
2019-05-31T12:24:12.654Z,10576
2019-05-31T12:24:57.769Z,10660
2019-05-31T12:26:12.514Z,8656
2019-05-31T12:26:58.079Z,8692
2019-05-31T12:28:01.199Z,9028
2019-05-31T12:29:12.918Z,9452
2019-05-31T12:29:59.129Z,9588
2019-05-31T12:30:59.269Z,9100
2019-05-31T12:31:59.548Z,8504
2019-05-31T12:32:58.267Z,8208
2019-05-31T12:34:12.953Z,8384
2019-05-31T12:35:14.314Z,8780
2019-05-31T12:35:59.592Z,8600
2019-05-31T12:36:58.411Z,8476
2019-05-31T12:38:13.057Z,8452
2019-05-31T12:38:59.572Z,8620
2019-05-31T12:40:00.323Z,8588
2019-05-31T12:41:06.183Z,8244
2019-05-31T12:42:13.864Z,8048
2019-05-31T12:42:59.675Z,8200
2019-05-31T12:43:59.379Z,8536
2019-05-31T12:45:13.806Z,8560
2019-05-31T12:46:13.375Z,8176
2019-05-31T12:47:13.311Z,7712
2019-05-31T12:48:02.727Z,7400
2019-05-31T12:48:58.442Z,7108
2019-05-31T12:50:14.464Z,7120
2019-05-31T12:50:58.759Z,7248
2019-05-31T12:52:13.272Z,7456
2019-05-31T12:52:58.813Z,7484
2019-05-31T12:53:59.933Z,7608
2019-05-31T12:54:59.227Z,7772
2019-05-31T12:56:01.901Z,8172
2019-05-31T12:56:59.316Z,8624
2019-05-31T12:57:59.378Z,9144
2019-05-31T12:59:01.580Z,9524
2019-05-31T13:00:13.674Z,9912
2019-05-31T13:01:59.059Z,9804
2019-05-31T13:03:03.785Z,9344
2019-05-31T13:03:59.217Z,8996
2019-05-31T13:05:00.352Z,8668
2019-05-31T13:06:13.833Z,8392
2019-05-31T13:06:59.441Z,8328
2019-05-31T13:08:02.482Z,8584
2019-05-31T13:08:59.488Z,8732
2019-05-31T13:09:59.425Z,8788
2019-05-31T13:10:59.673Z,8876
2019-05-31T13:12:14.450Z,8740
2019-05-31T13:13:00.234Z,8688
2019-05-31T13:14:00.301Z,8624
2019-05-31T13:15:00.705Z,8640
2019-05-31T13:16:03.212Z,8640
2019-05-31T13:17:00.292Z,8948
2019-05-31T13:18:01.938Z,9412
2019-05-31T13:19:01.165Z,9556
2019-05-31T13:20:01.292Z,9588
2019-05-31T13:21:17.641Z,10072
2019-05-31T13:22:01.229Z,10296
2019-05-31T13:22:59.651Z,10468
2019-05-31T13:24:00.018Z,10764
2019-05-31T13:25:02.276Z,11008
2019-05-31T13:25:59.728Z,11124
2019-05-31T13:26:59.756Z,11148
2019-05-31T13:28:59.805Z,10948
2019-05-31T13:29:59.627Z,10800
2019-05-31T13:31:06.993Z,10700
2019-05-31T13:32:04.101Z,10748
2019-05-31T13:33:04.363Z,10924
2019-05-31T13:34:14.603Z,10984
2019-05-31T13:35:05.802Z,11000
2019-05-31T13:36:00.604Z,11052
2019-05-31T13:37:00.456Z,11080
2019-05-31T13:38:02.349Z,11096
2019-05-31T13:39:00.619Z,10992
2019-05-31T13:40:00.653Z,11004
2019-05-31T13:41:00.770Z,11112
2019-05-31T13:42:02.902Z,11200
2019-05-31T13:43:15.869Z,11140
2019-05-31T13:44:00.758Z,11060
2019-05-31T13:45:16.255Z,11112
2019-05-31T13:46:15.768Z,11172
2019-05-31T13:47:01.347Z,11228
2019-05-31T13:48:14.938Z,11324
2019-05-31T13:49:15.850Z,11164
2019-05-31T13:50:02.012Z,11040
2019-05-31T13:51:16.769Z,11020
2019-05-31T13:52:03.294Z,10776
2019-05-31T13:53:15.146Z,10580
2019-05-31T13:54:05.308Z,10328
2019-05-31T13:56:02.171Z,10156
2019-05-31T13:57:02.129Z,10040
2019-05-31T13:58:01.970Z,9924
2019-05-31T13:59:02.302Z,9952
2019-05-31T14:00:03.148Z,9996
2019-05-31T14:01:02.682Z,10104
2019-05-31T14:02:01.004Z,10180
2019-05-31T14:03:02.866Z,10260
2019-05-31T14:04:15.453Z,10312
2019-05-31T14:05:01.103Z,10340
2019-05-31T14:06:02.644Z,10244